Time;durP1;ratioP1;P1;durP2;ratioP2;P2;SDS_P1;SDS_P2;PMS_P1;PMS_P2;Temp;Humidity;BMP_temperature;BMP_pressure;BME280_temperature;BME280_humidity;BME280_pressure;Samples;Min_cycle;Max_cycle;Signal;HPM_P1;HPM_P2
2022/05/07 00:00:34;;;;;;;3.57;3.37;;;24.70;37.00;;;;;;5054896;28;20994;-77
2022/05/07 00:03:02;;;;;;;3.70;3.50;;;24.60;37.00;;;;;;5053904;28;20443;-77
2022/05/07 00:05:32;;;;;;;3.60;3.30;;;24.50;36.80;;;;;;5058908;28;20481;-78
2022/05/07 00:08:00;;;;;;;3.43;3.23;;;24.50;36.90;;;;;;5059328;28;21018;-77
2022/05/07 00:10:28;;;;;;;4.50;3.40;;;24.50;36.70;;;;;;5056291;28;20490;-77
2022/05/07 00:12:56;;;;;;;3.60;3.40;;;24.40;36.70;;;;;;5057131;28;20446;-77
2022/05/07 00:15:24;;;;;;;3.97;3.43;;;24.40;36.50;;;;;;5057247;28;20424;-78
2022/05/07 00:18:05;;;;;;;3.97;3.67;;;24.30;36.50;;;;;;5059445;28;20450;-78
2022/05/07 00:20:35;;;;;;;3.93;3.53;;;24.20;36.40;;;;;;5058559;28;20453;-78
2022/05/07 00:23:03;;;;;;;3.80;3.50;;;24.30;36.50;;;;;;5060170;28;20541;-78
2022/05/07 00:25:32;;;;;;;3.90;3.70;;;24.20;36.40;;;;;;5056437;28;20459;-78
2022/05/07 00:28:00;;;;;;;4.60;4.20;;;24.20;36.30;;;;;;5055745;28;20483;-77
2022/05/07 00:30:28;;;;;;;4.03;3.60;;;24.20;36.20;;;;;;5055462;28;20550;-77
2022/05/07 00:32:56;;;;;;;4.00;3.70;;;24.10;36.20;;;;;;5055626;28;20526;-77
2022/05/07 00:35:24;;;;;;;4.60;4.20;;;24.10;36.10;;;;;;5054398;28;20468;-78
2022/05/07 00:37:53;;;;;;;4.33;4.03;;;24.10;36.10;;;;;;5055796;28;20446;-77
2022/05/07 00:40:21;;;;;;;3.90;3.70;;;24.10;36.10;;;;;;5056623;28;20445;-77
2022/05/07 00:42:49;;;;;;;4.60;4.00;;;24.10;36.10;;;;;;5056130;28;20977;-78
2022/05/07 00:45:17;;;;;;;4.30;4.00;;;24.10;36.00;;;;;;5056048;28;20541;-77
2022/05/07 00:47:45;;;;;;;3.57;3.37;;;24.10;36.00;;;;;;5056056;28;20494;-77
2022/05/07 00:53:01;;;;;;;4.03;3.80;;;24.10;35.90;;;;;;5054608;28;20493;-77
2022/05/07 00:55:29;;;;;;;3.40;3.20;;;24.00;36.60;;;;;;5055381;28;20456;-77
2022/05/07 00:57:57;;;;;;;3.87;3.57;;;24.00;35.90;;;;;;5054990;28;20497;-77
2022/05/07 01:00:25;;;;;;;3.80;3.50;;;24.00;35.90;;;;;;5054641;28;20478;-77
2022/05/07 01:02:53;;;;;;;4.50;4.20;;;24.00;35.80;;;;;;5055156;28;20516;-77
2022/05/07 01:05:22;;;;;;;4.10;3.80;;;23.90;35.70;;;;;;5056189;28;20432;-77
2022/05/07 01:07:50;;;;;;;4.23;3.90;;;23.90;35.80;;;;;;5056023;28;20442;-77
2022/05/07 01:10:19;;;;;;;5.53;3.87;;;24.00;35.70;;;;;;5056136;28;20481;-78
2022/05/07 01:12:47;;;;;;;3.60;3.40;;;24.00;35.60;;;;;;5058321;28;20453;-78
2022/05/07 01:15:15;;;;;;;3.87;3.67;;;24.00;35.60;;;;;;5058697;28;20450;-78
2022/05/07 01:17:43;;;;;;;4.20;3.90;;;24.00;35.60;;;;;;5058399;28;20421;-78
2022/05/07 01:20:13;;;;;;;4.10;3.57;;;24.00;35.60;;;;;;5059479;28;20452;-78
2022/05/07 01:22:43;;;;;;;3.80;3.50;;;23.90;35.50;;;;;;5060276;28;20534;-78
2022/05/07 01:25:10;;;;;;;4.23;3.87;;;23.90;35.60;;;;;;5059504;28;20529;-78
2022/05/07 01:27:38;;;;;;;3.90;3.60;;;23.90;35.50;;;;;;5059949;28;20432;-78
2022/05/07 01:30:07;;;;;;;4.67;4.17;;;23.90;35.60;;;;;;5062391;28;20465;-78
2022/05/07 01:32:35;;;;;;;3.90;3.70;;;23.90;35.60;;;;;;5063847;28;20440;-78
2022/05/07 01:35:03;;;;;;;3.80;3.60;;;23.90;35.50;;;;;;5062521;28;20874;-78
2022/05/07 01:37:31;;;;;;;3.77;3.57;;;23.80;35.50;;;;;;5062506;28;20463;-78
2022/05/07 01:40:01;;;;;;;4.00;3.80;;;23.80;35.50;;;;;;5062025;28;20503;-78
2022/05/07 01:42:29;;;;;;;4.20;3.90;;;23.80;35.60;;;;;;5060718;28;20493;-78
2022/05/07 01:44:58;;;;;;;4.80;3.53;;;23.80;35.60;;;;;;5060907;28;20493;-78
2022/05/07 01:50:11;;;;;;;4.33;4.00;;;23.80;35.50;;;;;;5060799;28;20557;-78
2022/05/07 01:52:39;;;;;;;4.13;3.83;;;23.70;35.60;;;;;;5061639;28;20512;-78
2022/05/07 01:55:09;;;;;;;4.20;3.90;;;23.80;35.60;;;;;;5061736;28;20424;-78
2022/05/07 01:57:37;;;;;;;4.67;4.30;;;23.70;35.50;;;;;;5062696;28;20538;-78
2022/05/07 02:00:06;;;;;;;4.33;4.00;;;23.80;35.70;;;;;;5060630;28;20474;-78
2022/05/07 02:02:34;;;;;;;4.30;4.00;;;23.70;35.50;;;;;;5062650;28;20823;-78
2022/05/07 02:05:02;;;;;;;4.07;3.87;;;23.70;35.40;;;;;;5063096;28;20429;-78
2022/05/07 02:07:30;;;;;;;5.00;4.20;;;23.70;35.50;;;;;;5060252;28;20512;-78
2022/05/07 02:09:58;;;;;;;4.30;4.00;;;23.70;35.50;;;;;;5060995;28;20500;-78
2022/05/07 02:12:28;;;;;;;4.93;4.53;;;23.70;36.30;;;;;;5060489;28;20451;-78
2022/05/07 02:14:56;;;;;;;3.80;3.60;;;23.70;35.60;;;;;;5062257;28;20537;-79
2022/05/07 02:17:24;;;;;;;4.63;4.23;;;23.70;35.60;;;;;;5059514;28;20518;-78
2022/05/07 02:19:52;;;;;;;6.83;4.83;;;23.70;35.60;;;;;;5057582;28;20466;-78
2022/05/07 02:22:20;;;;;;;5.07;4.60;;;23.70;35.60;;;;;;5062549;28;20446;-78
2022/05/07 02:24:48;;;;;;;4.70;4.30;;;23.70;35.60;;;;;;5061390;28;20474;-78
2022/05/07 02:27:16;;;;;;;5.17;4.30;;;23.60;35.70;;;;;;5061888;28;20425;-78
2022/05/07 02:29:45;;;;;;;4.80;4.40;;;23.60;35.80;;;;;;5060254;28;20466;-78
2022/05/07 02:32:14;;;;;;;5.30;4.43;;;23.60;35.60;;;;;;5058692;28;20467;-78
2022/05/07 02:34:42;;;;;;;5.13;4.70;;;23.50;35.60;;;;;;5059435;28;20501;-78
2022/05/07 02:37:10;;;;;;;4.83;4.43;;;23.50;35.70;;;;;;5059417;28;20496;-78
2022/05/07 02:39:38;;;;;;;4.70;4.30;;;23.60;35.80;;;;;;5059932;28;20489;-79
2022/05/07 02:44:52;;;;;;;5.00;4.50;;;23.60;35.70;;;;;;5058915;28;20493;-78
2022/05/07 02:47:20;;;;;;;4.97;4.57;;;23.60;35.80;;;;;;5060737;28;20484;-78
2022/05/07 02:49:48;;;;;;;5.23;4.70;;;23.60;35.80;;;;;;5059209;28;20560;-78
2022/05/07 02:52:16;;;;;;;5.30;4.80;;;23.50;35.70;;;;;;5059521;28;20452;-78
2022/05/07 02:54:44;;;;;;;4.83;4.37;;;23.50;35.90;;;;;;5058838;28;20513;-78
2022/05/07 02:57:12;;;;;;;4.50;4.20;;;23.40;35.90;;;;;;5059809;28;20518;-78
2022/05/07 02:59:41;;;;;;;5.83;4.80;;;23.50;35.90;;;;;;5059262;28;20952;-78
2022/05/07 03:02:11;;;;;;;5.10;4.70;;;23.50;35.90;;;;;;5066213;28;20524;-78
2022/05/07 03:04:39;;;;;;;4.80;4.40;;;23.40;35.90;;;;;;5064583;28;20486;-78
2022/05/07 03:07:08;;;;;;;5.07;4.40;;;23.50;36.00;;;;;;5061326;28;20476;-79
2022/05/07 03:09:36;;;;;;;5.07;4.67;;;23.40;36.00;;;;;;5047409;28;20465;-78
2022/05/07 03:12:04;;;;;;;4.80;4.30;;;23.40;35.90;;;;;;5047214;28;20463;-78
2022/05/07 03:14:32;;;;;;;4.77;4.33;;;23.40;35.90;;;;;;5047337;28;20454;-78
2022/05/07 03:17:00;;;;;;;4.43;4.13;;;23.40;36.00;;;;;;5046567;28;20461;-78
2022/05/07 03:19:30;;;;;;;4.93;4.43;;;23.40;36.10;;;;;;5042036;28;20473;-78
2022/05/07 03:21:58;;;;;;;4.70;4.30;;;23.40;36.10;;;;;;5067283;28;20468;-78
2022/05/07 03:24:25;;;;;;;5.00;4.60;;;23.40;36.00;;;;;;5066427;28;20425;-78
2022/05/07 03:26:54;;;;;;;5.30;4.90;;;23.40;36.10;;;;;;5067100;28;20500;-78
2022/05/07 03:29:21;;;;;;;4.87;4.47;;;23.30;36.00;;;;;;5066820;28;20543;-78
2022/05/07 03:31:52;;;;;;;4.80;4.40;;;23.30;36.20;;;;;;5067126;28;20473;-78
2022/05/07 03:34:20;;;;;;;4.60;4.30;;;23.30;36.20;;;;;;5066146;28;20517;-78
2022/05/07 03:36:50;;;;;;;5.73;4.40;;;23.30;36.40;;;;;;5066857;28;20413;-78
2022/05/07 03:39:18;;;;;;;4.60;4.20;;;23.30;36.30;;;;;;5065293;28;20445;-78
2022/05/07 03:41:46;;;;;;;4.87;4.47;;;23.20;36.30;;;;;;5048398;28;20473;-78
2022/05/07 03:44:14;;;;;;;5.03;4.10;;;23.20;36.30;;;;;;5047737;28;20476;-78
2022/05/07 03:46:42;;;;;;;4.23;3.93;;;23.20;36.30;;;;;;5047400;28;20447;-78
2022/05/07 03:49:11;;;;;;;4.47;4.17;;;23.20;36.30;;;;;;5046925;28;20554;-78
2022/05/07 03:54:22;;;;;;;4.00;3.77;;;23.20;36.20;;;;;;5056865;28;20454;-78
2022/05/07 03:56:50;;;;;;;4.70;4.10;;;23.10;36.20;;;;;;5067874;28;20421;-78
2022/05/07 03:59:19;;;;;;;4.43;4.10;;;23.10;36.40;;;;;;5066390;28;20468;-78
2022/05/07 04:01:47;;;;;;;4.57;4.17;;;23.10;36.40;;;;;;5066341;28;20508;-78
2022/05/07 04:04:15;;;;;;;4.00;3.80;;;23.10;36.40;;;;;;5064730;28;20421;-78
2022/05/07 04:06:43;;;;;;;4.83;4.43;;;23.10;36.30;;;;;;5064596;28;20560;-78
2022/05/07 04:09:11;;;;;;;5.00;4.60;;;23.10;36.40;;;;;;5063738;28;20481;-78
2022/05/07 04:11:40;;;;;;;11.00;4.60;;;23.10;36.30;;;;;;5064046;28;20525;-78
2022/05/07 04:14:08;;;;;;;4.60;4.20;;;23.10;36.20;;;;;;5062077;28;20504;-78
2022/05/07 04:16:36;;;;;;;4.70;4.33;;;23.10;36.20;;;;;;5060889;28;20957;-78
2022/05/07 04:19:11;;;;;;;4.93;4.53;;;23.10;36.10;;;;;;5058063;28;20530;-78
2022/05/07 04:21:39;;;;;;;5.13;4.20;;;23.10;36.20;;;;;;5063093;28;20505;-78
2022/05/07 04:24:07;;;;;;;4.10;3.77;;;23.10;36.90;;;;;;5059863;28;20513;-78
2022/05/07 04:26:35;;;;;;;4.03;3.73;;;23.20;37.40;;;;;;5058648;28;20520;-78
2022/05/07 04:29:04;;;;;;;4.30;3.80;;;23.20;37.50;;;;;;5059635;28;20546;-78
2022/05/07 04:31:32;;;;;;;3.90;3.70;;;23.20;37.50;;;;;;5060102;28;20429;-78
2022/05/07 04:34:00;;;;;;;4.37;3.97;;;23.20;37.60;;;;;;5061176;28;20475;-78
2022/05/07 04:36:28;;;;;;;3.60;3.30;;;23.20;37.60;;;;;;5061491;28;20457;-79
2022/05/07 04:38:56;;;;;;;4.30;3.90;;;23.20;37.60;;;;;;5053206;28;20536;-83
2022/05/07 04:41:26;;;;;;;5.60;3.63;;;23.20;37.70;;;;;;5057709;28;20499;-82
2022/05/07 04:43:55;;;;;;;4.00;3.70;;;23.20;37.80;;;;;;5058479;28;20413;-82
2022/05/07 04:46:24;;;;;;;3.90;3.60;;;23.20;37.90;;;;;;5059833;28;20530;-82
2022/05/07 04:48:52;;;;;;;3.63;3.43;;;23.30;37.90;;;;;;5059595;28;20462;-81
2022/05/07 04:51:21;;;;;;;4.10;3.80;;;23.30;38.00;;;;;;5058135;28;20421;-80
2022/05/07 04:54:09;;;;;;;8.43;3.80;;;23.30;38.00;;;;;;5059539;28;20440;-81
2022/05/07 04:56:37;;;;;;;3.97;3.67;;;23.30;38.00;;;;;;5045333;28;20442;-82
2022/05/07 04:59:05;;;;;;;4.50;4.10;;;23.30;38.00;;;;;;5041057;28;20473;-84
2022/05/07 05:01:34;;;;;;;4.80;3.30;;;23.30;38.00;;;;;;5039617;28;20446;-82
2022/05/07 05:04:03;;;;;;;3.73;3.43;;;23.40;38.10;;;;;;5040539;28;20531;-82
2022/05/07 05:06:31;;;;;;;4.10;3.80;;;23.40;38.20;;;;;;5040828;28;20447;-82
2022/05/07 05:08:59;;;;;;;4.80;3.67;;;23.40;38.10;;;;;;5041361;28;20484;-82
2022/05/07 05:11:27;;;;;;;3.30;3.10;;;23.30;38.10;;;;;;5038149;28;20468;-84
2022/05/07 05:13:55;;;;;;;3.70;3.50;;;23.40;38.20;;;;;;5038938;28;20425;-83
2022/05/07 05:16:23;;;;;;;3.13;2.93;;;23.30;38.20;;;;;;5035224;28;20488;-83
2022/05/07 05:18:53;;;;;;;3.57;3.37;;;23.30;38.30;;;;;;5036956;28;20438;-83
2022/05/07 05:21:21;;;;;;;3.47;3.27;;;23.30;38.40;;;;;;5041573;28;20530;-80
2022/05/07 05:23:49;;;;;;;6.70;4.43;;;23.30;38.40;;;;;;5053200;28;20438;-80
2022/05/07 05:26:20;;;;;;;4.20;3.47;;;23.30;38.50;;;;;;5058859;28;20460;-82
2022/05/07 05:28:50;;;;;;;3.60;3.40;;;23.40;38.60;;;;;;5051987;28;20442;-81
2022/05/07 05:31:18;;;;;;;3.50;3.27;;;23.30;38.60;;;;;;5040468;28;20521;-81
2022/05/07 05:33:46;;;;;;;3.50;3.30;;;23.30;38.60;;;;;;5057587;28;20438;-81
2022/05/07 05:36:15;;;;;;;6.10;3.63;;;23.40;38.60;;;;;;5056752;28;20538;-81
2022/05/07 05:38:43;;;;;;;3.87;3.57;;;23.40;38.50;;;;;;5058857;28;20421;-80
2022/05/07 05:41:12;;;;;;;9.03;3.60;;;23.40;38.70;;;;;;5058602;28;20469;-82
2022/05/07 05:43:44;;;;;;;3.50;3.30;;;23.40;38.80;;;;;;5059060;28;20508;-82
2022/05/07 05:46:14;;;;;;;3.63;3.33;;;23.40;38.70;;;;;;5057725;28;20447;-81
2022/05/07 05:48:42;;;;;;;4.37;3.80;;;23.50;38.80;;;;;;5057220;28;20421;-80
2022/05/07 05:51:10;;;;;;;4.00;3.53;;;23.50;38.80;;;;;;5056219;28;20425;-80
2022/05/07 05:53:40;;;;;;;4.30;4.00;;;23.50;38.80;;;;;;5056710;28;20482;-80
2022/05/07 05:56:08;;;;;;;4.17;3.87;;;23.60;38.80;;;;;;5058595;28;20842;-80
2022/05/07 05:58:36;;;;;;;4.00;3.80;;;23.70;38.80;;;;;;5056532;28;20474;-80
2022/05/07 06:01:06;;;;;;;6.90;3.83;;;23.70;38.90;;;;;;5050122;28;20471;-81
2022/05/07 06:03:34;;;;;;;4.03;3.73;;;23.60;38.80;;;;;;5055396;28;20472;-81
2022/05/07 06:06:03;;;;;;;3.60;3.40;;;23.70;38.90;;;;;;5059269;28;20473;-81
2022/05/07 06:08:31;;;;;;;3.73;3.40;;;23.70;39.00;;;;;;5059565;28;20429;-81
2022/05/07 06:11:02;;;;;;;5.60;3.47;;;23.70;39.00;;;;;;5058368;28;20478;-80
2022/05/07 06:13:32;;;;;;;4.40;4.03;;;23.70;39.10;;;;;;5050104;28;20913;-80
2022/05/07 06:16:00;;;;;;;3.23;3.07;;;23.70;39.10;;;;;;5039158;28;20422;-80
2022/05/07 06:18:29;;;;;;;3.60;3.40;;;23.70;39.10;;;;;;5038940;28;20478;-80
2022/05/07 06:21:01;;;;;;;3.70;3.37;;;23.70;39.00;;;;;;5053681;28;20465;-81
2022/05/07 06:23:29;;;;;;;4.30;3.80;;;23.80;39.10;;;;;;5041189;28;20478;-82
2022/05/07 06:28:44;;;;;;;3.90;3.60;;;23.80;39.10;;;;;;5039321;28;20485;-80
2022/05/07 06:31:12;;;;;;;4.40;4.00;;;23.80;39.20;;;;;;5056384;28;20535;-80
2022/05/07 06:33:40;;;;;;;3.57;3.37;;;23.80;39.10;;;;;;5058248;28;20450;-80
2022/05/07 06:36:08;;;;;;;3.90;3.60;;;23.90;39.30;;;;;;5057644;28;20477;-80
2022/05/07 06:38:36;;;;;;;3.97;3.77;;;23.90;39.20;;;;;;5057672;28;20486;-81
2022/05/07 06:41:04;;;;;;;4.40;3.97;;;23.80;39.30;;;;;;5058912;28;20422;-80
2022/05/07 06:43:32;;;;;;;3.80;3.60;;;23.80;39.40;;;;;;5059230;28;20554;-81
2022/05/07 06:46:02;;;;;;;3.70;3.40;;;23.80;39.40;;;;;;5055004;28;20477;-81
2022/05/07 06:48:32;;;;;;;3.87;3.67;;;23.90;39.50;;;;;;5058684;28;20514;-80
2022/05/07 06:51:00;;;;;;;4.40;3.83;;;23.80;39.40;;;;;;5055472;28;20562;-80
2022/05/07 06:53:28;;;;;;;3.90;3.67;;;23.90;39.50;;;;;;5039344;28;20497;-80
2022/05/07 06:55:56;;;;;;;3.53;3.33;;;24.00;39.40;;;;;;5051528;28;20516;-80
2022/05/07 06:58:30;;;;;;;3.80;3.50;;;24.00;39.30;;;;;;5058979;28;20421;-80
2022/05/07 07:01:01;;;;;;;3.50;3.20;;;24.10;39.40;;;;;;5056655;28;20455;-79
2022/05/07 07:03:31;;;;;;;3.77;3.47;;;24.10;39.40;;;;;;5058260;28;20449;-80
2022/05/07 07:06:00;;;;;;;3.37;3.20;;;24.20;39.40;;;;;;5058981;28;20454;-80
2022/05/07 07:08:29;;;;;;;4.87;3.60;;;24.30;39.30;;;;;;5058751;28;20447;-80
2022/05/07 07:10:57;;;;;;;5.43;3.10;;;24.30;39.20;;;;;;5058341;28;20508;-80
2022/05/07 07:13:25;;;;;;;3.70;3.40;;;24.40;39.10;;;;;;5058504;28;20417;-80
2022/05/07 07:15:53;;;;;;;3.67;3.47;;;24.40;39.20;;;;;;5057625;28;20507;-80
2022/05/07 07:18:21;;;;;;;3.57;3.20;;;24.40;39.10;;;;;;5058285;28;20429;-80
2022/05/07 07:20:51;;;;;;;3.40;3.20;;;24.40;39.10;;;;;;5052792;28;20452;-80
2022/05/07 07:23:19;;;;;;;3.90;3.63;;;24.50;39.10;;;;;;5057899;28;20447;-80
2022/05/07 07:25:47;;;;;;;3.20;3.10;;;24.60;39.20;;;;;;5058123;28;20541;-80
2022/05/07 07:28:14;;;;;;;3.80;3.60;;;24.60;39.00;;;;;;5057711;28;20529;-80
2022/05/07 07:30:43;;;;;;;4.10;3.80;;;24.80;38.80;;;;;;5058030;28;20504;-80
2022/05/07 07:33:13;;;;;;;3.60;3.40;;;25.00;38.60;;;;;;5058204;28;20475;-80
2022/05/07 07:35:41;;;;;;;5.00;3.80;;;25.10;38.50;;;;;;5051880;28;20550;-80
2022/05/07 07:38:10;;;;;;;4.40;3.37;;;25.20;38.40;;;;;;5057311;28;20578;-79
2022/05/07 07:40:38;;;;;;;3.97;3.70;;;25.30;38.40;;;;;;5047965;28;20524;-80
2022/05/07 07:43:06;;;;;;;4.20;3.90;;;25.40;38.40;;;;;;5057592;28;20445;-81
2022/05/07 07:48:19;;;;;;;3.67;3.37;;;25.60;38.30;;;;;;5060062;28;20492;-80
2022/05/07 07:50:50;;;;;;;3.20;2.90;;;25.70;38.20;;;;;;5053168;28;20525;-81
2022/05/07 07:53:22;;;;;;;3.60;3.40;;;25.90;38.10;;;;;;5059162;28;20482;-80
2022/05/07 07:55:50;;;;;;;3.87;3.63;;;26.00;38.00;;;;;;5056822;28;20466;-80
2022/05/07 07:58:18;;;;;;;3.67;3.47;;;26.10;37.90;;;;;;5061574;28;20545;-81
2022/05/07 08:00:46;;;;;;;4.13;3.93;;;26.10;37.80;;;;;;5061684;28;20545;-81
2022/05/07 08:03:15;;;;;;;3.53;3.23;;;26.20;37.80;;;;;;5061093;28;20484;-81
2022/05/07 08:05:44;;;;;;;3.50;3.30;;;26.20;37.70;;;;;;5061307;28;20479;-80
2022/05/07 08:13:45;;;;;;;3.83;3.33;;;26.30;37.80;;;;;;5040675;28;20445;-82
2022/05/07 08:16:13;;;;;;;3.07;2.87;;;26.30;37.80;;;;;;5040788;28;20476;-81
2022/05/07 08:18:41;;;;;;;4.07;3.50;;;26.40;37.80;;;;;;5041100;28;20519;-80
2022/05/07 08:21:10;;;;;;;3.70;3.40;;;26.40;37.70;;;;;;5041406;28;20512;-80
2022/05/07 08:23:38;;;;;;;3.90;3.70;;;26.50;37.80;;;;;;5041017;28;20513;-81
2022/05/07 08:26:08;;;;;;;6.40;3.33;;;26.60;37.80;;;;;;5041283;28;20460;-81
2022/05/07 08:28:37;;;;;;;4.80;3.53;;;26.70;37.60;;;;;;5058962;28;20481;-81
2022/05/07 08:31:05;;;;;;;3.13;3.00;;;26.90;37.60;;;;;;5060954;28;20445;-81
2022/05/07 08:33:33;;;;;;;3.50;3.30;;;27.00;37.50;;;;;;5060666;28;20417;-81
2022/05/07 08:36:01;;;;;;;3.70;3.40;;;27.10;37.40;;;;;;5061143;28;20472;-81
2022/05/07 08:38:29;;;;;;;3.27;3.10;;;27.20;37.30;;;;;;5060620;28;20448;-80
2022/05/07 08:40:58;;;;;;;3.20;3.03;;;27.40;38.00;;;;;;5061217;28;20444;-81
2022/05/07 08:43:36;;;;;;;3.40;3.20;;;27.50;37.20;;;;;;5057209;28;20467;-80
2022/05/07 08:46:09;;;;;;;3.23;3.10;;;27.60;37.20;;;;;;5060706;28;20424;-82
2022/05/07 08:48:38;;;;;;;3.27;3.07;;;27.70;37.10;;;;;;5060244;28;20517;-81
2022/05/07 08:51:06;;;;;;;2.90;2.80;;;27.80;37.00;;;;;;5059755;28;20445;-81
2022/05/07 08:53:34;;;;;;;2.90;2.80;;;27.90;36.90;;;;;;5060347;28;20469;-80
2022/05/07 08:56:02;;;;;;;6.07;2.67;;;28.10;37.00;;;;;;5060125;28;20417;-81
2022/05/07 08:58:31;;;;;;;3.33;3.23;;;28.30;36.80;;;;;;5059429;28;20439;-80
2022/05/07 09:01:00;;;;;;;2.80;2.70;;;28.50;36.80;;;;;;5059619;28;20462;-81
2022/05/07 09:03:38;;;;;;;3.90;3.37;;;28.70;36.70;;;;;;5061326;28;20451;-80
2022/05/07 09:06:17;;;;;;;2.77;2.67;;;28.90;36.50;;;;;;5060248;28;20471;-80
2022/05/07 09:08:46;;;;;;;3.20;3.00;;;29.10;36.30;;;;;;5062169;28;20447;-80
2022/05/07 09:11:14;;;;;;;2.87;2.77;;;29.30;36.20;;;;;;5060747;28;20484;-80
2022/05/07 09:13:43;;;;;;;2.67;2.57;;;29.60;36.00;;;;;;5062496;28;20473;-81
2022/05/07 09:16:11;;;;;;;2.77;2.67;;;29.80;35.80;;;;;;5056040;28;20479;-81
2022/05/07 09:18:39;;;;;;;3.23;3.00;;;30.00;35.60;;;;;;5058129;28;20449;-81
2022/05/07 09:21:18;;;;;;;2.77;2.67;;;30.20;35.40;;;;;;5058654;28;20435;-81
2022/05/07 09:23:47;;;;;;;2.90;2.80;;;30.40;35.30;;;;;;5040609;28;20431;-80
2022/05/07 09:26:28;;;;;;;2.80;2.70;;;30.40;35.10;;;;;;5045395;28;20506;-81
2022/05/07 09:28:58;;;;;;;2.63;2.50;;;30.50;34.90;;;;;;5046156;28;20459;-80
2022/05/07 09:31:26;;;;;;;2.70;2.60;;;30.60;34.70;;;;;;5062093;28;20482;-80
2022/05/07 09:33:55;;;;;;;3.07;2.97;;;30.60;34.70;;;;;;5060647;28;20442;-81
2022/05/07 09:36:25;;;;;;;3.00;2.90;;;30.40;35.40;;;;;;5060479;28;20513;-81
2022/05/07 09:38:59;;;;;;;3.17;2.97;;;30.30;34.80;;;;;;5060063;28;20467;-81
2022/05/07 09:41:27;;;;;;;3.00;2.80;;;30.10;34.90;;;;;;5059854;28;20441;-81
2022/05/07 09:43:55;;;;;;;3.00;2.90;;;29.90;35.00;;;;;;5060208;28;20472;-81
2022/05/07 09:46:30;;;;;;;2.77;2.60;;;29.80;35.10;;;;;;5059413;28;20473;-81
2022/05/07 09:49:00;;;;;;;3.73;2.60;;;29.70;35.20;;;;;;5056578;28;20474;-80
2022/05/07 09:51:28;;;;;;;2.77;2.67;;;29.60;35.30;;;;;;5060391;28;20454;-80
2022/05/07 09:59:27;;;;;;;3.00;2.90;;;29.30;35.70;;;;;;5061542;28;20532;-81
2022/05/07 10:02:04;;;;;;;2.90;2.70;;;29.20;35.80;;;;;;5059315;28;20529;-81
2022/05/07 10:04:41;;;;;;;2.77;2.57;;;29.20;35.90;;;;;;5058430;28;20470;-81
2022/05/07 10:07:29;;;;;;;3.80;2.77;;;29.30;36.00;;;;;;5056503;28;20464;-81
2022/05/07 10:10:03;;;;;;;2.67;2.57;;;29.60;35.90;;;;;;5058294;28;20445;-81
2022/05/07 10:12:31;;;;;;;2.63;2.53;;;29.90;35.60;;;;;;5060241;28;20443;-81
2022/05/07 10:15:06;;;;;;;3.00;2.80;;;30.10;35.30;;;;;;5059069;28;20470;-81
2022/05/07 10:17:36;;;;;;;2.60;2.50;;;30.30;35.10;;;;;;5059831;28;20536;-80
2022/05/07 10:20:06;;;;;;;4.13;2.40;;;30.60;35.20;;;;;;5059016;28;20461;-81
2022/05/07 10:22:34;;;;;;;2.73;2.60;;;30.90;34.80;;;;;;5060412;28;20474;-81
2022/05/07 10:25:04;;;;;;;2.60;2.50;;;31.30;34.50;;;;;;5055935;28;20478;-81
2022/05/07 10:27:32;;;;;;;3.23;2.93;;;31.60;34.30;;;;;;5058482;28;20469;-81
2022/05/07 10:30:08;;;;;;;2.60;2.50;;;31.90;34.00;;;;;;5058057;28;20474;-81
2022/05/07 10:32:48;;;;;;;2.70;2.60;;;32.40;33.80;;;;;;5058588;28;20497;-81
2022/05/07 10:35:16;;;;;;;2.97;2.70;;;32.80;33.30;;;;;;5059918;28;20526;-81
2022/05/07 10:37:45;;;;;;;2.90;2.70;;;33.10;32.80;;;;;;5058832;28;20473;-81
2022/05/07 10:40:13;;;;;;;2.97;2.13;;;33.10;32.40;;;;;;5056260;28;20490;-81
2022/05/07 10:42:41;;;;;;;3.07;2.20;;;33.00;32.40;;;;;;5058365;28;20453;-81
2022/05/07 10:45:20;;;;;;;2.80;2.70;;;32.90;32.20;;;;;;5058854;28;20498;-81
2022/05/07 10:47:57;;;;;;;2.77;2.57;;;32.70;32.30;;;;;;5057780;28;20506;-81
2022/05/07 10:50:51;;;;;;;2.30;2.20;;;32.40;32.50;;;;;;5058629;28;20462;-81
2022/05/07 10:53:19;;;;;;;2.30;2.20;;;32.20;32.80;;;;;;5059123;28;20441;-81
2022/05/07 10:55:50;;;;;;;4.03;2.80;;;31.90;32.90;;;;;;5058518;28;20438;-81
2022/05/07 10:58:27;;;;;;;2.80;2.60;;;31.90;33.30;;;;;;5055587;28;20601;-81
2022/05/07 11:00:57;;;;;;;2.80;2.50;;;32.00;33.20;;;;;;5065260;28;20489;-83
2022/05/07 11:03:27;;;;;;;2.63;2.53;;;32.20;33.20;;;;;;5084306;28;20468;-80
2022/05/07 11:06:02;;;;;;;3.00;2.80;;;32.40;33.00;;;;;;5080253;28;20504;-80
2022/05/07 11:08:35;;;;;;;4.83;2.57;;;32.60;32.80;;;;;;5078816;28;20465;-81
2022/05/07 11:11:07;;;;;;;3.00;2.90;;;33.20;32.90;;;;;;5083795;28;20444;-81
2022/05/07 11:13:47;;;;;;;2.80;2.60;;;33.50;32.20;;;;;;5082570;28;20507;-81
2022/05/07 11:16:28;;;;;;;2.20;2.13;;;34.10;32.00;;;;;;5063587;28;20466;-80
2022/05/07 11:19:02;;;;;;;2.40;2.30;;;35.20;31.20;;;;;;5050799;28;20467;-81
2022/05/07 11:21:32;;;;;;;2.47;2.27;;;35.90;29.40;;;;;;5043864;28;20538;-81
2022/05/07 11:24:02;;;;;;;2.50;2.40;;;35.20;29.60;;;;;;5046699;28;20458;-80
2022/05/07 11:26:30;;;;;;;2.80;2.40;;;34.60;30.00;;;;;;5043018;28;20497;-79
2022/05/07 11:28:58;;;;;;;3.30;3.00;;;34.10;30.40;;;;;;5046402;28;20471;-82
2022/05/07 11:31:27;;;;;;;2.43;2.33;;;33.70;30.80;;;;;;5064615;28;20442;-81
2022/05/07 11:34:04;;;;;;;2.60;2.50;;;33.40;31.10;;;;;;5058604;28;20545;-82
2022/05/07 11:36:32;;;;;;;2.60;2.50;;;33.20;31.40;;;;;;5062662;28;20447;-81
2022/05/07 11:39:01;;;;;;;2.80;2.57;;;33.00;31.80;;;;;;5066585;28;20489;-82
2022/05/07 11:41:35;;;;;;;2.87;2.70;;;32.80;31.80;;;;;;5068402;28;20477;-82
2022/05/07 11:47:23;;;;;;;3.13;2.83;;;32.70;32.20;;;;;;5069999;28;20446;-82
2022/05/07 11:50:05;;;;;;;8.97;2.50;;;32.60;32.20;;;;;;5067514;28;20464;-84
2022/05/07 11:52:33;;;;;;;3.83;2.60;;;32.50;32.20;;;;;;5067785;28;20476;-82
2022/05/07 11:55:05;;;;;;;2.80;2.70;;;32.40;32.30;;;;;;5068418;28;20442;-83
2022/05/07 11:57:34;;;;;;;3.00;2.80;;;32.30;32.40;;;;;;5067889;28;20805;-82
2022/05/07 12:00:21;;;;;;;3.00;2.80;;;32.20;32.40;;;;;;5067462;28;20458;-79
2022/05/07 12:02:50;;;;;;;7.93;3.40;;;31.90;31.10;;;;;;5063663;28;21010;-80
2022/05/07 12:05:20;;;;;;;6.07;3.93;;;30.90;32.00;;;;;;5055340;28;20497;-79
2022/05/07 12:07:49;;;;;;;4.50;3.50;;;30.30;32.70;;;;;;5062702;28;20457;-79
2022/05/07 12:10:17;;;;;;;5.43;3.03;;;30.00;33.30;;;;;;5064163;28;20490;-80
2022/05/07 12:12:45;;;;;;;4.50;3.50;;;29.80;33.80;;;;;;5065263;28;20557;-81
2022/05/07 12:15:13;;;;;;;5.20;3.17;;;29.80;34.20;;;;;;5063562;28;20438;-81
2022/05/07 12:17:52;;;;;;;3.37;3.10;;;29.90;34.40;;;;;;5064223;28;20446;-82
2022/05/07 12:20:23;;;;;;;7.13;2.90;;;31.70;34.20;;;;;;5063816;28;20470;-82
2022/05/07 12:31:14;;;;;;;4.80;2.70;;;35.30;28.50;;;;;;5065164;28;20482;-82
2022/05/07 12:33:42;;;;;;;3.43;2.40;;;36.10;27.90;;;;;;5064546;28;20442;-83
2022/05/07 12:36:11;;;;;;;2.33;1.90;;;36.90;27.40;;;;;;5065547;28;20510;-82
2022/05/07 12:38:39;;;;;;;3.13;2.10;;;37.90;26.60;;;;;;5065151;28;20469;-82
2022/05/07 12:41:07;;;;;;;2.23;2.10;;;38.70;25.60;;;;;;5061859;28;20461;-83
2022/05/07 12:43:35;;;;;;;2.00;1.90;;;38.80;25.20;;;;;;5045189;28;20439;-82
2022/05/07 12:46:03;;;;;;;1.93;1.80;;;38.90;24.70;;;;;;5043982;28;20535;-82
2022/05/07 12:48:32;;;;;;;3.10;1.90;;;38.50;25.10;;;;;;5044948;28;20451;-82
2022/05/07 12:51:00;;;;;;;2.53;1.97;;;37.60;25.70;;;;;;5044927;28;20444;-82
2022/05/07 12:53:29;;;;;;;2.40;2.20;;;36.50;26.30;;;;;;5044868;28;20447;-82
2022/05/07 12:55:58;;;;;;;3.37;2.10;;;35.70;27.10;;;;;;5045272;28;20515;-82
2022/05/07 12:58:26;;;;;;;2.20;2.00;;;35.70;27.40;;;;;;5052931;28;20458;-81
2022/05/07 13:00:54;;;;;;;2.60;2.40;;;34.80;27.90;;;;;;5053222;28;20506;-82
2022/05/07 13:03:22;;;;;;;3.27;2.60;;;33.80;28.90;;;;;;5043882;28;20452;-81
2022/05/07 13:05:52;;;;;;;2.53;2.40;;;33.00;29.80;;;;;;5043927;28;20475;-82
2022/05/07 13:08:20;;;;;;;2.37;2.20;;;32.40;30.60;;;;;;5044357;28;20444;-82
2022/05/07 13:10:50;;;;;;;2.80;2.60;;;32.10;31.30;;;;;;5044410;28;20546;-81
2022/05/07 13:13:23;;;;;;;2.40;2.30;;;31.90;31.80;;;;;;5043643;28;20474;-81
2022/05/07 13:15:51;;;;;;;2.30;2.20;;;31.70;32.00;;;;;;5055231;28;20435;-81
2022/05/07 13:18:20;;;;;;;3.10;2.80;;;31.50;32.50;;;;;;5063646;28;20529;-81
2022/05/07 13:20:53;;;;;;;2.30;2.23;;;31.40;32.60;;;;;;5063975;28;20458;-81
2022/05/07 13:23:22;;;;;;;2.60;2.50;;;31.40;32.70;;;;;;5064376;28;20510;-81
2022/05/07 13:25:51;;;;;;;2.60;2.40;;;31.60;32.80;;;;;;5063881;28;20473;-82
2022/05/07 13:28:19;;;;;;;2.13;1.90;;;31.80;32.60;;;;;;5063233;28;20439;-82
2022/05/07 13:30:47;;;;;;;1.87;1.77;;;31.90;32.30;;;;;;5063324;28;20474;-81
2022/05/07 13:33:15;;;;;;;2.53;1.80;;;32.00;32.30;;;;;;5051761;28;20476;-82
2022/05/07 13:35:44;;;;;;;3.33;2.10;;;32.30;32.20;;;;;;5046257;28;20447;-82
2022/05/07 13:38:11;;;;;;;2.30;2.10;;;32.40;31.60;;;;;;5062674;28;20493;-82